Time;durP1;ratioP1;P1;durP2;ratioP2;P2;SDS_P1;SDS_P2;PMS_P1;PMS_P2;Temp;Humidity;BMP_temperature;BMP_pressure;BME280_temperature;BME280_humidity;BME280_pressure;Samples;Min_cycle;Max_cycle;Signal;HPM_P1;HPM_P2
2024/04/08 00:01:56;;;;;;;12.73;2.50;;;13.90;99.90;;;;;;5041675;28;20570;-68
2024/04/08 00:04:22;;;;;;;13.88;2.63;;;13.90;99.90;;;;;;5034908;28;20201;-66
2024/04/08 00:06:48;;;;;;;9.13;2.35;;;13.90;99.90;;;;;;5039765;28;20580;-67
2024/04/08 00:09:13;;;;;;;9.10;2.40;;;13.90;99.90;;;;;;5060226;28;20185;-66
2024/04/08 00:11:40;;;;;;;14.88;2.78;;;13.90;99.90;;;;;;5057719;28;20180;-66
2024/04/08 00:14:05;;;;;;;14.65;2.70;;;13.90;99.90;;;;;;5041965;28;20195;-66
2024/04/08 00:16:31;;;;;;;9.48;2.17;;;13.90;99.90;;;;;;5060997;28;20197;-66
2024/04/08 00:18:57;;;;;;;8.80;2.30;;;13.90;99.90;;;;;;5058206;28;20190;-66
2024/04/08 00:21:22;;;;;;;13.88;2.88;;;14.00;99.90;;;;;;5040483;28;20228;-67
2024/04/08 00:23:48;;;;;;;9.93;2.58;;;13.90;99.90;;;;;;5059190;28;20208;-66
2024/04/08 00:26:14;;;;;;;11.70;2.80;;;13.90;99.90;;;;;;5041495;28;20194;-67
2024/04/08 00:28:40;;;;;;;12.82;3.50;;;13.90;99.90;;;;;;5059763;28;20187;-66
2024/04/08 00:31:08;;;;;;;9.85;2.70;;;13.90;99.90;;;;;;5058252;28;20222;-66
2024/04/08 00:33:35;;;;;;;12.82;2.75;;;13.90;99.90;;;;;;5041103;28;20190;-68
2024/04/08 00:36:01;;;;;;;14.98;3.10;;;13.90;99.90;;;;;;5060489;28;20194;-67
2024/04/08 00:38:27;;;;;;;9.30;2.30;;;13.90;99.90;;;;;;5056245;28;20202;-68
2024/04/08 00:40:53;;;;;;;14.07;2.78;;;13.90;99.90;;;;;;5057268;28;20193;-67
2024/04/08 00:43:20;;;;;;;11.80;2.67;;;13.90;99.90;;;;;;5059238;28;20237;-68
2024/04/08 00:45:47;;;;;;;17.02;2.95;;;13.90;99.90;;;;;;5041398;28;20187;-68
2024/04/08 00:48:14;;;;;;;12.18;2.75;;;13.90;99.90;;;;;;5040910;28;20174;-68
2024/04/08 00:50:43;;;;;;;12.60;2.30;;;13.90;99.90;;;;;;5056597;28;20198;-68
2024/04/08 00:53:09;;;;;;;9.38;2.65;;;13.90;99.90;;;;;;5058516;28;20615;-69
2024/04/08 00:55:37;;;;;;;12.60;2.80;;;13.90;99.90;;;;;;5056748;28;20941;-69
2024/04/08 00:58:04;;;;;;;10.07;2.55;;;13.90;99.90;;;;;;5037739;28;20252;-68
2024/04/08 01:00:30;;;;;;;12.45;2.58;;;14.00;99.90;;;;;;5038223;28;20290;-68
2024/04/08 01:02:58;;;;;;;9.18;2.33;;;13.90;99.90;;;;;;5059941;28;20310;-69
2024/04/08 01:05:24;;;;;;;9.93;2.38;;;13.90;99.90;;;;;;5055898;28;20190;-68
2024/04/08 01:07:50;;;;;;;8.65;2.50;;;13.90;99.90;;;;;;5057635;28;20753;-67
2024/04/08 01:10:17;;;;;;;9.63;2.30;;;13.90;99.90;;;;;;5056841;28;20174;-70
2024/04/08 01:12:43;;;;;;;11.98;2.50;;;13.90;99.90;;;;;;5038737;28;20220;-69
2024/04/08 01:15:09;;;;;;;10.23;2.25;;;13.80;99.90;;;;;;5041256;28;20198;-66
2024/04/08 01:17:34;;;;;;;12.32;2.65;;;13.80;99.90;;;;;;5054793;28;20191;-67
2024/04/08 01:20:00;;;;;;;16.77;2.72;;;13.80;99.90;;;;;;5056062;28;20236;-67
2024/04/08 01:22:31;;;;;;;14.88;2.67;;;13.80;99.90;;;;;;5057968;28;20211;-68
2024/04/08 01:25:00;;;;;;;10.43;2.33;;;13.80;99.90;;;;;;5057253;28;20192;-68
2024/04/08 01:27:26;;;;;;;14.57;2.50;;;13.80;99.90;;;;;;5059275;28;20669;-67
2024/04/08 01:29:52;;;;;;;16.33;2.75;;;13.80;99.90;;;;;;5055648;28;20382;-66
2024/04/08 01:32:18;;;;;;;10.32;2.17;;;13.80;99.90;;;;;;5056730;28;21244;-67
2024/04/08 01:34:44;;;;;;;14.15;2.35;;;13.90;99.90;;;;;;5056027;28;20183;-68
2024/04/08 01:37:10;;;;;;;8.48;2.33;;;13.90;99.90;;;;;;5057484;28;20667;-68
2024/04/08 01:39:35;;;;;;;9.48;2.13;;;13.80;99.90;;;;;;5058394;28;20199;-66
2024/04/08 01:42:01;;;;;;;9.93;2.35;;;13.90;99.90;;;;;;5054315;28;20210;-67
2024/04/08 01:44:27;;;;;;;13.65;2.25;;;13.80;99.90;;;;;;5054250;28;20195;-67
2024/04/08 01:46:53;;;;;;;15.30;2.75;;;13.80;99.90;;;;;;5056122;28;20203;-69
2024/04/08 01:49:19;;;;;;;12.98;2.72;;;13.80;99.90;;;;;;5056101;28;20214;-67
2024/04/08 01:51:44;;;;;;;10.23;2.08;;;13.80;99.90;;;;;;5057701;28;20264;-67
2024/04/08 01:54:13;;;;;;;9.15;2.25;;;13.80;99.90;;;;;;5057507;28;20190;-68
2024/04/08 01:56:39;;;;;;;7.97;2.22;;;13.80;99.90;;;;;;5057705;28;20198;-67
2024/04/08 01:59:05;;;;;;;12.07;2.22;;;13.80;99.90;;;;;;5059080;28;20183;-68
2024/04/08 02:01:31;;;;;;;14.45;2.53;;;13.80;99.90;;;;;;5062413;28;20187;-68
2024/04/08 02:03:56;;;;;;;12.27;2.45;;;13.80;99.90;;;;;;5060833;28;20257;-68
2024/04/08 02:06:22;;;;;;;10.02;2.55;;;13.80;99.90;;;;;;5041428;28;20228;-68
2024/04/08 02:08:48;;;;;;;12.63;2.30;;;13.80;99.90;;;;;;5061904;28;20231;-67
2024/04/08 02:11:13;;;;;;;11.77;2.30;;;13.80;99.90;;;;;;5062176;28;20388;-66
2024/04/08 02:13:41;;;;;;;12.73;2.50;;;13.80;99.90;;;;;;5060469;28;20560;-67
2024/04/08 02:16:08;;;;;;;11.05;2.55;;;13.80;99.90;;;;;;5060879;28;20226;-67
2024/04/08 02:18:34;;;;;;;11.35;2.17;;;13.80;99.90;;;;;;5060756;28;21134;-68
2024/04/08 02:21:01;;;;;;;12.23;2.05;;;13.80;99.90;;;;;;5061880;28;20194;-67
2024/04/08 02:23:27;;;;;;;10.65;2.25;;;13.70;99.90;;;;;;5061738;28;20255;-67
2024/04/08 02:25:52;;;;;;;10.15;2.45;;;13.70;99.90;;;;;;5062014;28;20198;-67
2024/04/08 02:28:18;;;;;;;11.02;3.05;;;13.70;99.90;;;;;;5061536;28;20563;-67
2024/04/08 02:30:44;;;;;;;9.80;2.58;;;13.70;99.90;;;;;;5061538;28;20331;-69
2024/04/08 02:33:10;;;;;;;7.85;2.42;;;13.70;99.90;;;;;;5059498;28;20197;-67
2024/04/08 02:35:37;;;;;;;10.75;2.78;;;13.70;99.90;;;;;;5063061;28;20275;-67
2024/04/08 02:38:04;;;;;;;11.35;2.30;;;13.70;99.90;;;;;;5043842;28;20206;-67
2024/04/08 02:40:34;;;;;;;12.93;2.65;;;13.70;99.90;;;;;;5060293;28;20194;-67
2024/04/08 02:43:02;;;;;;;13.13;2.72;;;13.70;99.90;;;;;;5060534;28;20226;-66
2024/04/08 02:45:27;;;;;;;13.07;2.90;;;13.70;99.90;;;;;;5059473;28;20178;-68
2024/04/08 02:47:53;;;;;;;12.70;3.03;;;13.70;99.90;;;;;;5061339;28;20197;-67
2024/04/08 02:50:19;;;;;;;11.43;2.55;;;13.70;99.90;;;;;;5026056;28;20229;-67
2024/04/08 02:52:45;;;;;;;10.93;2.63;;;13.70;99.90;;;;;;5062087;28;20613;-67
2024/04/08 02:55:11;;;;;;;10.00;2.20;;;13.70;99.90;;;;;;5061338;28;20374;-67
2024/04/08 02:57:37;;;;;;;9.23;2.55;;;13.70;99.90;;;;;;5058897;28;20256;-66
2024/04/08 03:00:03;;;;;;;10.77;2.40;;;13.70;99.90;;;;;;5059885;28;20210;-69
2024/04/08 03:02:29;;;;;;;12.13;2.80;;;13.70;99.90;;;;;;5059866;28;21064;-68
2024/04/08 03:04:54;;;;;;;13.32;2.97;;;13.70;99.90;;;;;;5059838;28;20244;-67
2024/04/08 03:07:20;;;;;;;10.30;2.72;;;13.80;99.90;;;;;;5061383;28;20186;-67
2024/04/08 03:09:51;;;;;;;12.98;3.13;;;13.70;99.90;;;;;;5061518;28;20190;-67
2024/04/08 03:12:16;;;;;;;14.07;2.92;;;13.80;99.90;;;;;;5060851;28;20209;-68
2024/04/08 03:14:42;;;;;;;11.32;2.38;;;13.80;99.90;;;;;;5059977;28;20194;-68
2024/04/08 03:17:08;;;;;;;14.45;3.10;;;13.80;99.90;;;;;;5058144;28;20564;-66
2024/04/08 03:19:34;;;;;;;10.00;2.53;;;13.80;99.90;;;;;;5059138;28;20233;-67
2024/04/08 03:22:00;;;;;;;13.27;2.60;;;13.70;99.90;;;;;;5061981;28;20198;-67
2024/04/08 03:24:29;;;;;;;10.85;3.08;;;13.70;99.90;;;;;;5059028;28;20204;-68
2024/04/08 03:26:54;;;;;;;9.05;2.83;;;13.70;99.90;;;;;;5060364;28;20202;-67
2024/04/08 03:29:20;;;;;;;8.45;2.72;;;13.80;99.90;;;;;;5060456;28;20186;-66
2024/04/08 03:31:47;;;;;;;11.98;3.10;;;13.70;99.90;;;;;;5058738;28;20186;-67
2024/04/08 03:34:12;;;;;;;9.20;3.13;;;13.80;99.90;;;;;;5059885;28;20186;-68
2024/04/08 03:36:38;;;;;;;10.65;3.47;;;13.80;99.90;;;;;;5058400;28;20185;-67
2024/04/08 03:39:04;;;;;;;8.05;3.20;;;13.80;99.90;;;;;;5060091;28;20225;-66
2024/04/08 03:41:30;;;;;;;15.13;3.70;;;13.80;99.90;;;;;;5059759;28;20312;-67
2024/04/08 03:43:56;;;;;;;15.23;3.70;;;13.70;99.90;;;;;;5059285;28;20306;-68
2024/04/08 03:46:22;;;;;;;7.25;3.35;;;13.80;99.90;;;;;;5060952;28;20281;-67
2024/04/08 03:48:48;;;;;;;10.43;3.83;;;13.70;99.90;;;;;;5041533;28;20202;-67
2024/04/08 03:51:15;;;;;;;7.95;3.80;;;13.80;99.90;;;;;;5040290;28;20557;-68
2024/04/08 03:53:41;;;;;;;6.80;3.28;;;13.70;99.90;;;;;;5059521;28;20730;-67
2024/04/08 03:56:11;;;;;;;9.30;4.30;;;13.80;99.90;;;;;;5061984;28;20262;-68
2024/04/08 03:58:41;;;;;;;9.98;3.97;;;13.70;99.90;;;;;;5039311;28;20186;-67
2024/04/08 04:01:09;;;;;;;9.85;4.00;;;13.80;99.90;;;;;;5041790;28;20720;-68
2024/04/08 04:03:35;;;;;;;11.52;4.32;;;13.80;99.90;;;;;;5059717;28;20215;-68
2024/04/08 04:06:01;;;;;;;9.88;4.53;;;13.80;99.90;;;;;;5057891;28;20186;-68
2024/04/08 04:08:28;;;;;;;10.27;4.95;;;13.80;99.90;;;;;;5042749;28;20205;-67
2024/04/08 04:10:55;;;;;;;10.45;4.68;;;13.80;99.90;;;;;;5026990;28;20183;-67
2024/04/08 04:13:21;;;;;;;9.65;4.90;;;13.80;99.90;;;;;;5058758;28;20191;-67
2024/04/08 04:15:47;;;;;;;7.80;4.60;;;13.80;99.90;;;;;;5059188;28;20202;-67
2024/04/08 04:18:13;;;;;;;11.05;5.10;;;13.80;99.90;;;;;;5040703;28;20190;-68
2024/04/08 04:20:40;;;;;;;11.25;5.53;;;13.80;99.90;;;;;;5059857;28;20216;-68
2024/04/08 04:23:07;;;;;;;10.10;5.05;;;13.80;99.90;;;;;;5033964;28;21145;-68
2024/04/08 04:25:33;;;;;;;10.43;5.30;;;13.80;99.90;;;;;;5060171;28;20217;-68
2024/04/08 04:28:00;;;;;;;11.48;5.25;;;13.80;99.90;;;;;;5060251;28;20648;-67
2024/04/08 04:30:26;;;;;;;10.00;5.28;;;13.70;99.90;;;;;;5058697;28;21244;-69
2024/04/08 04:32:52;;;;;;;10.95;4.88;;;13.80;99.90;;;;;;5059340;28;20678;-70
2024/04/08 04:35:18;;;;;;;14.70;5.68;;;13.80;99.90;;;;;;5039736;28;20337;-67
2024/04/08 04:37:44;;;;;;;10.73;5.35;;;13.80;99.90;;;;;;5061120;28;20277;-69
2024/04/08 04:40:10;;;;;;;10.98;5.00;;;13.80;99.90;;;;;;5056287;28;20190;-66
2024/04/08 04:42:35;;;;;;;11.77;5.10;;;13.80;99.90;;;;;;5058691;28;20237;-67
2024/04/08 04:45:01;;;;;;;12.15;5.63;;;13.80;99.90;;;;;;5059620;28;20198;-67
2024/04/08 04:47:27;;;;;;;12.05;5.25;;;13.80;99.90;;;;;;5039814;28;21302;-67
2024/04/08 04:49:53;;;;;;;13.25;5.43;;;13.80;99.90;;;;;;5058851;28;20307;-67
2024/04/08 04:52:18;;;;;;;13.45;5.82;;;13.80;99.90;;;;;;5041043;28;20194;-67
2024/04/08 04:54:44;;;;;;;12.70;5.93;;;13.80;99.90;;;;;;5059985;28;20190;-67
2024/04/08 04:57:10;;;;;;;12.23;5.28;;;13.80;99.90;;;;;;5057753;28;20666;-68
2024/04/08 04:59:35;;;;;;;13.43;5.60;;;13.80;99.90;;;;;;5057463;28;20194;-68
2024/04/08 05:02:01;;;;;;;15.00;6.13;;;13.80;99.90;;;;;;5041174;28;20219;-68
2024/04/08 05:04:27;;;;;;;12.82;5.20;;;13.80;99.90;;;;;;5059046;28;20728;-68
2024/04/08 05:06:52;;;;;;;10.80;5.40;;;13.80;99.90;;;;;;5039542;28;20210;-68
2024/04/08 05:09:18;;;;;;;12.43;5.68;;;13.80;99.90;;;;;;5059201;28;20586;-67
2024/04/08 05:11:44;;;;;;;12.75;5.60;;;13.80;99.90;;;;;;5059099;28;20190;-68
2024/04/08 05:14:09;;;;;;;13.88;5.95;;;13.80;99.90;;;;;;5039464;28;20277;-66
2024/04/08 05:16:35;;;;;;;15.00;6.22;;;13.80;99.90;;;;;;5059301;28;20190;-68
2024/04/08 05:19:01;;;;;;;10.88;5.97;;;13.80;99.90;;;;;;5056554;28;20746;-67
2024/04/08 05:21:26;;;;;;;12.50;6.70;;;13.80;99.90;;;;;;5040611;28;20253;-67
2024/04/08 05:23:52;;;;;;;16.10;6.75;;;13.80;99.90;;;;;;5059775;28;20206;-67
2024/04/08 05:26:18;;;;;;;14.35;6.20;;;13.80;99.90;;;;;;5052491;28;20232;-67
2024/04/08 05:28:43;;;;;;;10.95;6.18;;;13.80;99.90;;;;;;5058201;28;20197;-67
2024/04/08 05:31:09;;;;;;;13.32;6.35;;;13.70;99.90;;;;;;5057862;28;20240;-67
2024/04/08 05:33:35;;;;;;;12.95;6.15;;;13.70;99.90;;;;;;5058198;28;20191;-68
2024/04/08 05:36:00;;;;;;;13.52;6.20;;;13.70;99.90;;;;;;5065163;28;20199;-65
2024/04/08 05:38:27;;;;;;;14.30;6.78;;;13.70;99.90;;;;;;5061218;28;20197;-68
2024/04/08 05:40:53;;;;;;;12.90;6.40;;;13.70;99.90;;;;;;5062925;28;20274;-67
2024/04/08 05:43:19;;;;;;;12.25;5.97;;;13.70;99.90;;;;;;5044713;28;20791;-67
2024/04/08 05:45:48;;;;;;;14.27;6.35;;;13.60;99.90;;;;;;5061071;28;20277;-67
2024/04/08 05:48:14;;;;;;;13.35;6.70;;;13.60;99.90;;;;;;5062428;28;20240;-68
2024/04/08 05:50:40;;;;;;;16.75;8.02;;;13.60;99.90;;;;;;5061766;28;20186;-66
2024/04/08 05:53:06;;;;;;;14.55;7.10;;;13.60;99.90;;;;;;5059655;28;20194;-66
2024/04/08 05:55:32;;;;;;;15.73;7.43;;;13.50;99.90;;;;;;5062021;28;20678;-68
2024/04/08 05:57:58;;;;;;;16.33;8.35;;;13.50;99.90;;;;;;5062675;28;20658;-68
2024/04/08 06:00:24;;;;;;;18.25;7.38;;;13.50;99.90;;;;;;5044693;28;21227;-67
2024/04/08 06:02:52;;;;;;;15.77;7.45;;;13.60;99.90;;;;;;5057083;28;20225;-68
2024/04/08 06:05:19;;;;;;;13.88;7.00;;;13.60;99.90;;;;;;5062921;28;20183;-67
2024/04/08 06:07:51;;;;;;;14.15;7.57;;;13.60;99.90;;;;;;5059605;28;20213;-67
2024/04/08 06:10:19;;;;;;;15.32;8.45;;;13.60;99.90;;;;;;5062746;28;20201;-66
2024/04/08 06:12:46;;;;;;;14.15;8.13;;;13.60;99.90;;;;;;5061439;28;21129;-68
2024/04/08 06:15:15;;;;;;;18.48;7.20;;;13.70;99.90;;;;;;5059959;28;20252;-67
2024/04/08 06:17:41;;;;;;;17.08;7.30;;;13.80;99.90;;;;;;5061818;28;20186;-66
2024/04/08 06:20:08;;;;;;;9.40;6.20;;;13.90;99.90;;;;;;5061968;28;20283;-68
2024/04/08 06:22:36;;;;;;;14.50;6.38;;;13.90;99.90;;;;;;5059634;28;20210;-66
2024/04/08 06:25:03;;;;;;;13.25;6.75;;;14.00;99.90;;;;;;5060297;28;20425;-69
2024/04/08 06:27:29;;;;;;;15.45;6.57;;;14.10;99.90;;;;;;5062411;28;20206;-65
2024/04/08 06:29:55;;;;;;;11.05;6.35;;;14.20;99.90;;;;;;5058356;28;20429;-66
2024/04/08 06:32:20;;;;;;;15.35;7.38;;;14.30;99.90;;;;;;5041695;28;20194;-68
2024/04/08 06:34:48;;;;;;;13.90;6.40;;;14.40;99.90;;;;;;5035601;28;20777;-67
2024/04/08 06:37:14;;;;;;;11.60;6.68;;;14.50;99.90;;;;;;5061589;28;20198;-66
2024/04/08 06:39:41;;;;;;;14.00;6.40;;;14.60;99.90;;;;;;5059619;28;20654;-67
2024/04/08 06:42:06;;;;;;;11.10;6.75;;;14.60;99.90;;;;;;5057851;28;20238;-67
2024/04/08 06:44:32;;;;;;;11.55;6.63;;;14.70;99.90;;;;;;5063075;28;20234;-67
2024/04/08 06:46:58;;;;;;;12.30;6.47;;;14.70;99.90;;;;;;5057735;28;20670;-68
2024/04/08 06:49:24;;;;;;;10.65;6.68;;;14.80;99.90;;;;;;5062235;28;20586;-68
2024/04/08 06:51:49;;;;;;;14.20;7.00;;;14.90;99.90;;;;;;5043772;28;20290;-66
2024/04/08 06:54:15;;;;;;;11.45;7.43;;;14.90;99.90;;;;;;5060758;28;20526;-68
2024/04/08 06:56:41;;;;;;;28.02;9.25;;;15.00;99.90;;;;;;5057590;28;20190;-66
2024/04/08 06:59:06;;;;;;;13.07;7.00;;;15.00;99.90;;;;;;5043561;28;20259;-67
2024/04/08 07:01:33;;;;;;;11.27;6.75;;;15.00;99.90;;;;;;5060028;28;20646;-68
2024/04/08 07:03:58;;;;;;;11.65;6.45;;;15.00;99.90;;;;;;5043019;28;20241;-68
2024/04/08 07:06:24;;;;;;;10.75;6.40;;;15.10;99.90;;;;;;5057356;28;20225;-66
2024/04/08 07:08:50;;;;;;;12.63;6.75;;;15.10;99.90;;;;;;5061148;28;20185;-67
2024/04/08 07:11:16;;;;;;;16.58;6.38;;;15.10;99.90;;;;;;5059621;28;20174;-66
2024/04/08 07:13:41;;;;;;;12.75;7.10;;;15.10;99.90;;;;;;5060923;28;20248;-67
2024/04/08 07:16:07;;;;;;;15.00;7.20;;;15.10;99.90;;;;;;5059425;28;20347;-66
2024/04/08 07:18:34;;;;;;;13.82;7.25;;;15.10;99.90;;;;;;5061336;28;20205;-66
2024/04/08 07:20:59;;;;;;;9.85;6.97;;;15.10;99.90;;;;;;5060761;28;20227;-68
2024/04/08 07:23:25;;;;;;;13.23;7.53;;;15.20;99.90;;;;;;5058071;28;20212;-67
2024/04/08 07:25:51;;;;;;;12.10;6.88;;;15.20;99.90;;;;;;5038755;28;20277;-66
2024/04/08 07:28:17;;;;;;;13.70;7.38;;;15.20;99.90;;;;;;5059685;28;20194;-67
2024/04/08 07:30:43;;;;;;;13.13;7.95;;;15.10;99.90;;;;;;5060767;28;20197;-67
2024/04/08 07:33:09;;;;;;;15.23;8.40;;;15.10;99.90;;;;;;5057149;28;20286;-67
2024/04/08 07:35:34;;;;;;;13.60;7.95;;;15.10;99.90;;;;;;5060634;28;20205;-68
2024/04/08 07:38:00;;;;;;;11.55;7.63;;;15.00;99.90;;;;;;5040411;28;20179;-66
2024/04/08 07:40:26;;;;;;;11.93;8.65;;;15.00;99.90;;;;;;5057978;28;20196;-66
2024/04/08 07:42:51;;;;;;;14.45;8.55;;;15.00;99.90;;;;;;5060269;28;20233;-66
2024/04/08 07:45:17;;;;;;;16.15;8.02;;;15.00;99.90;;;;;;5060373;28;20182;-66
2024/04/08 07:47:46;;;;;;;13.15;8.05;;;15.10;99.90;;;;;;5060469;28;20190;-68
2024/04/08 07:50:12;;;;;;;12.68;7.65;;;15.10;99.90;;;;;;5024601;28;20210;-65
2024/04/08 07:52:39;;;;;;;14.07;8.48;;;15.20;99.90;;;;;;5060502;28;20881;-66
2024/04/08 07:55:05;;;;;;;17.25;9.10;;;15.20;99.90;;;;;;5059089;28;20205;-69
2024/04/08 07:57:31;;;;;;;10.40;7.78;;;15.30;99.90;;;;;;5059575;28;20197;-68
2024/04/08 07:59:57;;;;;;;12.65;8.35;;;15.40;99.90;;;;;;5056059;28;20281;-66
2024/04/08 08:02:24;;;;;;;12.07;7.50;;;15.50;99.90;;;;;;5060095;28;20345;-67
2024/04/08 08:04:50;;;;;;;12.73;8.02;;;15.60;99.90;;;;;;5057840;28;20182;-67
2024/04/08 08:07:16;;;;;;;14.65;8.63;;;15.70;99.90;;;;;;5060230;28;20728;-67
2024/04/08 08:09:41;;;;;;;13.60;8.02;;;15.80;99.90;;;;;;5042026;28;20183;-67
2024/04/08 08:12:07;;;;;;;11.20;7.68;;;15.90;99.90;;;;;;5040833;28;20636;-68
2024/04/08 08:14:33;;;;;;;13.55;7.50;;;16.00;99.90;;;;;;5059774;28;20190;-66
2024/04/08 08:16:59;;;;;;;16.35;7.60;;;16.10;99.90;;;;;;5058001;28;20222;-66
2024/04/08 08:19:24;;;;;;;14.50;7.93;;;16.20;99.90;;;;;;5042153;28;20278;-66
2024/04/08 08:21:51;;;;;;;13.10;7.88;;;16.20;99.90;;;;;;5039786;28;20191;-69
2024/04/08 08:24:17;;;;;;;12.48;7.82;;;16.30;99.90;;;;;;5056351;28;20197;-67
2024/04/08 08:26:42;;;;;;;11.82;7.60;;;16.30;99.90;;;;;;5042656;28;20187;-66
2024/04/08 08:29:08;;;;;;;11.75;8.05;;;16.40;99.90;;;;;;5057846;28;20194;-66
2024/04/08 08:31:34;;;;;;;15.57;8.00;;;16.50;99.90;;;;;;5039008;28;20187;-67
2024/04/08 08:34:00;;;;;;;13.40;8.30;;;16.60;99.90;;;;;;5040607;28;20194;-67
2024/04/08 08:36:25;;;;;;;19.80;12.38;;;16.70;99.90;;;;;;5059678;28;20208;-67
2024/04/08 08:38:51;;;;;;;15.10;7.85;;;16.70;99.90;;;;;;5058512;28;20197;-67
2024/04/08 08:41:22;;;;;;;12.30;8.25;;;16.80;99.90;;;;;;5057979;28;20326;-68
2024/04/08 08:45:20;;;;;;;13.70;8.30;;;16.90;99.90;;;;;;5384173;26;21139;-67
2024/04/08 08:47:46;;;;;;;14.25;8.48;;;17.00;99.90;;;;;;5383229;26;20341;-68
2024/04/08 08:50:12;;;;;;;13.52;7.85;;;17.10;99.90;;;;;;5382072;26;20710;-68
2024/04/08 08:52:38;;;;;;;12.90;7.55;;;17.20;99.90;;;;;;5382280;26;20237;-68
2024/04/08 08:55:05;;;;;;;14.75;7.97;;;17.30;99.90;;;;;;5382227;26;20288;-68
2024/04/08 08:57:32;;;;;;;12.70;8.55;;;17.40;99.90;;;;;;5384494;26;20237;-70
2024/04/08 08:59:58;;;;;;;15.27;9.02;;;17.50;99.90;;;;;;5384538;26;21054;-71
2024/04/08 09:02:25;;;;;;;12.65;7.80;;;17.50;99.90;;;;;;5382565;26;20244;-68
2024/04/08 09:04:52;;;;;;;11.70;7.93;;;17.60;99.90;;;;;;5382791;26;20225;-67
2024/04/08 09:07:18;;;;;;;13.00;7.38;;;17.70;99.90;;;;;;5382412;26;20318;-68
2024/04/08 09:10:02;;;;;;;13.13;7.88;;;17.70;99.90;;;;;;5382431;26;20228;-68
2024/04/08 09:12:28;;;;;;;15.55;7.72;;;17.80;99.90;;;;;;5384272;26;20681;-67
2024/04/08 09:14:54;;;;;;;21.13;11.70;;;17.80;99.90;;;;;;5384535;26;20252;-66
2024/04/08 09:17:20;;;;;;;12.85;7.82;;;17.90;99.90;;;;;;5383707;26;20744;-67
2024/04/08 09:19:47;;;;;;;12.30;7.72;;;17.90;99.90;;;;;;5383537;26;20743;-68
2024/04/08 09:22:16;;;;;;;13.88;7.40;;;18.00;99.90;;;;;;5384710;26;20248;-67
2024/04/08 09:24:42;;;;;;;14.52;8.25;;;18.10;99.90;;;;;;5382445;26;20245;-65
2024/04/08 09:27:09;;;;;;;14.55;7.53;;;18.10;99.90;;;;;;5384578;26;20348;-69
2024/04/08 09:29:35;;;;;;;15.57;9.10;;;18.20;99.90;;;;;;5383956;26;20841;-67
2024/04/08 09:32:01;;;;;;;14.57;9.00;;;18.20;99.90;;;;;;5384425;26;20319;-67
2024/04/08 09:34:28;;;;;;;14.35;8.05;;;18.30;99.90;;;;;;5383178;26;20233;-68
2024/04/08 09:36:57;;;;;;;15.90;8.30;;;18.40;99.90;;;;;;5384567;26;21324;-69
2024/04/08 09:39:24;;;;;;;14.40;8.35;;;18.50;99.90;;;;;;5382281;26;20233;-67
2024/04/08 09:41:53;;;;;;;12.10;7.60;;;18.60;99.90;;;;;;5383335;26;21492;-67
2024/04/08 09:44:19;;;;;;;13.25;7.72;;;18.70;99.90;;;;;;5383534;26;20252;-68
2024/04/08 09:46:46;;;;;;;15.27;7.78;;;18.80;99.90;;;;;;5383922;26;20724;-67
2024/04/08 09:49:12;;;;;;;11.63;7.63;;;18.80;99.90;;;;;;5384184;26;20301;-68
2024/04/08 09:51:42;;;;;;;13.00;7.68;;;18.80;99.90;;;;;;5382964;26;20667;-68
2024/04/08 09:54:10;;;;;;;13.52;7.90;;;18.80;99.90;;;;;;5384500;26;20372;-67
2024/04/08 09:56:38;;;;;;;16.40;7.85;;;18.80;99.90;;;;;;5365651;26;20300;-67
2024/04/08 09:59:08;;;;;;;14.98;8.30;;;18.80;99.90;;;;;;5368365;26;20588;-68
2024/04/08 10:01:37;;;;;;;13.50;6.75;;;19.00;99.90;;;;;;5368525;26;20580;-68
2024/04/08 10:04:11;;;;;;;9.52;6.60;;;19.00;99.90;;;;;;5369084;26;20230;-69
2024/04/08 10:06:37;;;;;;;13.43;6.20;;;19.10;99.90;;;;;;5368664;26;20233;-66
2024/04/08 10:09:03;;;;;;;13.40;7.00;;;19.10;99.90;;;;;;5365700;26;20279;-67
2024/04/08 10:11:29;;;;;;;13.52;7.22;;;19.20;99.90;;;;;;5368423;26;20233;-67
2024/04/08 10:13:55;;;;;;;11.90;7.40;;;19.20;99.90;;;;;;5365282;26;20552;-67
2024/04/08 10:16:21;;;;;;;13.63;6.57;;;19.30;99.90;;;;;;5368961;26;20307;-68
2024/04/08 10:18:56;;;;;;;12.70;5.88;;;19.30;99.90;;;;;;5366487;26;20305;-67
2024/04/08 10:21:23;;;;;;;16.80;7.35;;;19.30;99.90;;;;;;5366370;26;20299;-67
2024/04/08 10:23:55;;;;;;;15.10;6.00;;;19.30;99.90;;;;;;5366840;26;20632;-68
2024/04/08 10:26:26;;;;;;;11.65;5.65;;;19.30;99.90;;;;;;5368285;26;20281;-67
2024/04/08 10:28:52;;;;;;;8.52;3.67;;;19.40;99.90;;;;;;5368480;26;20249;-69
2024/04/08 10:31:27;;;;;;;8.80;4.07;;;19.50;99.90;;;;;;5368958;26;20237;-67
2024/04/08 10:33:52;;;;;;;10.52;5.90;;;19.50;99.90;;;;;;5367569;26;20225;-67
2024/04/08 10:36:19;;;;;;;14.70;6.25;;;19.50;99.90;;;;;;5367536;26;20744;-69
2024/04/08 10:38:44;;;;;;;10.10;5.85;;;19.50;99.90;;;;;;5368909;26;20238;-66
2024/04/08 10:41:10;;;;;;;9.25;5.70;;;19.50;99.90;;;;;;5368677;26;20351;-65
2024/04/08 10:43:36;;;;;;;12.00;5.60;;;19.50;99.90;;;;;;5365572;26;20344;-68
2024/04/08 10:46:03;;;;;;;10.45;5.70;;;19.50;99.90;;;;;;5368284;26;20229;-68
2024/04/08 10:48:29;;;;;;;9.63;4.60;;;19.60;99.90;;;;;;5367679;26;20325;-66
2024/04/08 10:50:55;;;;;;;8.48;4.28;;;19.70;99.90;;;;;;5368650;26;20238;-66
2024/04/08 10:53:21;;;;;;;10.98;4.85;;;19.70;99.90;;;;;;5367186;26;20237;-64
2024/04/08 10:55:46;;;;;;;9.65;5.85;;;19.80;99.90;;;;;;5365975;26;20225;-67
2024/04/08 10:58:13;;;;;;;10.68;5.05;;;19.90;99.90;;;;;;5367195;26;20260;-69
2024/04/08 11:00:39;;;;;;;9.73;4.30;;;20.00;99.90;;;;;;5367564;26;20963;-72
2024/04/08 11:03:05;;;;;;;7.78;4.53;;;20.10;99.90;;;;;;5373006;26;20229;-69
2024/04/08 11:05:31;;;;;;;10.70;5.20;;;20.10;99.90;;;;;;5368301;26;20233;-67
2024/04/08 11:08:00;;;;;;;10.15;4.15;;;20.20;99.90;;;;;;5368006;26;20352;-66
2024/04/08 11:10:28;;;;;;;12.00;4.10;;;20.30;99.90;;;;;;5367239;26;20327;-68
2024/04/08 11:12:54;;;;;;;10.05;3.75;;;20.40;99.90;;;;;;5368188;26;20345;-68
2024/04/08 11:15:23;;;;;;;9.00;4.50;;;20.40;99.90;;;;;;5365776;26;20237;-68
2024/04/08 11:17:55;;;;;;;10.38;5.13;;;20.50;99.90;;;;;;5366973;26;20272;-68
2024/04/08 11:20:21;;;;;;;11.57;4.35;;;20.50;99.90;;;;;;5364022;26;20271;-67
2024/04/08 11:22:46;;;;;;;11.10;4.25;;;20.50;99.90;;;;;;5365344;26;20241;-67
2024/04/08 11:25:16;;;;;;;10.48;6.07;;;20.50;99.90;;;;;;5365643;26;21814;-67
2024/04/08 11:27:43;;;;;;;8.20;4.13;;;20.50;99.90;;;;;;5367768;26;20275;-68
2024/04/08 11:30:16;;;;;;;10.93;5.68;;;20.50;99.90;;;;;;5367112;26;20245;-68
2024/04/08 11:32:42;;;;;;;7.57;3.80;;;20.60;99.90;;;;;;5367120;26;20355;-67
2024/04/08 11:35:08;;;;;;;10.82;4.05;;;20.70;99.90;;;;;;5364433;26;20245;-67
2024/04/08 11:37:34;;;;;;;8.85;3.58;;;20.70;99.90;;;;;;5366237;26;20230;-67
2024/04/08 11:40:03;;;;;;;9.48;3.75;;;20.90;99.90;;;;;;5367573;26;20309;-69
2024/04/08 11:42:29;;;;;;;11.80;3.72;;;20.90;99.90;;;;;;5366080;26;20233;-67
2024/04/08 11:45:02;;;;;;;7.97;3.15;;;20.80;99.90;;;;;;5366312;26;20237;-68
2024/04/08 11:47:28;;;;;;;6.78;3.28;;;20.90;99.90;;;;;;5367435;26;20327;-67
2024/04/08 11:49:55;;;;;;;7.90;3.45;;;20.90;99.90;;;;;;5365554;26;20297;-68
2024/04/08 11:52:21;;;;;;;10.82;3.50;;;21.00;99.90;;;;;;5365917;26;20799;-67
2024/04/08 11:54:47;;;;;;;8.00;2.90;;;21.10;99.90;;;;;;5367911;26;21195;-67
2024/04/08 11:57:14;;;;;;;7.45;2.90;;;21.30;99.90;;;;;;5368079;26;20285;-68
2024/04/08 11:59:40;;;;;;;8.35;3.65;;;21.30;99.90;;;;;;5368154;26;21238;-68
2024/04/08 12:02:07;;;;;;;7.88;3.72;;;21.40;99.90;;;;;;5365657;26;20239;-69
2024/04/08 12:04:32;;;;;;;8.48;3.40;;;21.50;99.90;;;;;;5367160;26;20331;-67
2024/04/08 12:06:58;;;;;;;8.43;3.00;;;21.60;99.90;;;;;;5367674;26;20715;-67
2024/04/08 12:09:24;;;;;;;7.10;2.60;;;21.70;99.90;;;;;;5367872;26;20689;-68
2024/04/08 12:11:50;;;;;;;5.15;2.20;;;21.80;99.90;;;;;;5366948;26;20297;-67
2024/04/08 12:14:16;;;;;;;5.93;2.78;;;21.80;99.90;;;;;;5366930;26;20759;-67
2024/04/08 12:16:42;;;;;;;7.00;2.38;;;21.90;99.90;;;;;;5367179;26;20230;-67
2024/04/08 12:19:09;;;;;;;8.88;2.80;;;21.90;99.90;;;;;;5366203;26;20304;-66
2024/04/08 12:21:35;;;;;;;6.47;2.53;;;21.90;99.90;;;;;;5366390;26;20233;-68
2024/04/08 12:24:02;;;;;;;4.35;2.28;;;21.90;99.90;;;;;;5365043;26;20236;-68
2024/04/08 12:26:28;;;;;;;6.05;2.40;;;22.00;99.90;;;;;;5365726;26;20268;-68
2024/04/08 12:28:54;;;;;;;8.00;3.20;;;21.90;99.90;;;;;;5366908;26;20291;-69
2024/04/08 12:31:20;;;;;;;6.60;2.75;;;21.90;99.90;;;;;;5366631;26;20250;-69
2024/04/08 12:33:46;;;;;;;6.50;3.10;;;21.80;99.90;;;;;;5366060;26;20366;-67
2024/04/08 12:36:12;;;;;;;7.82;3.28;;;21.70;99.90;;;;;;5366002;26;20225;-68